Time;durP1;ratioP1;P1;durP2;ratioP2;P2;SDS_P1;SDS_P2;PMS_P1;PMS_P2;Temp;Humidity;BMP_temperature;BMP_pressure;BME280_temperature;BME280_humidity;BME280_pressure;Samples;Min_cycle;Max_cycle;Signal;HPM_P1;HPM_P2
2023/05/23 00:01:57;;;;;;;9.00;6.60;;;13.90;99.90;;;14.09;75.59;94844.13;5078098;28;20471;-74
2023/05/23 00:04:25;;;;;;;6.33;5.73;;;13.90;99.90;;;14.02;75.17;94829.09;5078161;28;20514;-72
2023/05/23 00:06:52;;;;;;;7.90;5.30;;;13.80;99.90;;;13.93;75.08;94830.91;5071646;28;20875;-58
2023/05/23 00:09:20;;;;;;;6.37;5.77;;;13.70;99.90;;;13.88;74.93;94841.09;5074527;28;20454;-72
2023/05/23 00:11:47;;;;;;;8.13;4.63;;;13.70;99.90;;;13.82;75.11;94842.59;5071157;28;20888;-74
2023/05/23 00:14:15;;;;;;;3.80;3.50;;;13.60;99.90;;;13.78;74.66;94835.97;5076899;28;20450;-73
2023/05/23 00:16:43;;;;;;;4.57;4.17;;;13.60;99.90;;;13.74;74.94;94838.13;5074878;28;20519;-72
2023/05/23 00:19:13;;;;;;;16.20;4.30;;;13.50;99.90;;;13.72;74.95;94836.59;5076262;28;20862;-73
2023/05/23 00:21:42;;;;;;;3.90;3.60;;;13.50;99.90;;;13.69;74.65;94831.63;5073810;28;21100;-57
2023/05/23 00:24:09;;;;;;;4.60;4.03;;;13.50;99.90;;;13.67;74.75;94836.28;5080395;28;20493;-74
2023/05/23 00:26:37;;;;;;;4.07;3.67;;;13.50;99.90;;;13.66;74.97;94842.53;5073226;28;20563;-72
2023/05/23 00:29:04;;;;;;;3.77;3.47;;;13.50;99.90;;;13.67;74.91;94838.91;5077619;28;21063;-57
2023/05/23 00:31:32;;;;;;;5.00;4.13;;;13.50;99.90;;;13.68;75.03;94835.25;5075317;28;20485;-58
2023/05/23 00:33:59;;;;;;;5.13;4.63;;;13.50;99.90;;;13.67;75.20;94834.44;5072288;28;20477;-58
2023/05/23 00:36:28;;;;;;;6.13;4.20;;;13.50;99.90;;;13.67;75.32;94830.97;5074799;28;20856;-73
2023/05/23 00:38:55;;;;;;;4.70;3.93;;;13.40;99.90;;;13.66;75.74;94831.97;5077159;28;20561;-71
2023/05/23 00:41:24;;;;;;;9.13;4.97;;;13.50;99.90;;;13.63;75.52;94831.31;5076287;28;20902;-73
2023/05/23 00:43:52;;;;;;;7.10;4.60;;;13.50;99.90;;;13.62;75.66;94836.75;5074981;28;20446;-57
2023/05/23 00:46:19;;;;;;;6.20;5.07;;;13.40;99.90;;;13.61;75.36;94835.91;5071686;28;20470;-56
2023/05/23 00:48:46;;;;;;;7.07;4.50;;;13.40;99.90;;;13.62;75.72;94836.75;5078278;28;20454;-72
2023/05/23 00:51:14;;;;;;;6.70;5.00;;;13.40;99.90;;;13.61;75.85;94835.06;5065715;28;20482;-72
2023/05/23 00:53:43;;;;;;;6.53;5.93;;;13.40;99.90;;;13.60;75.85;94828.97;5074754;28;20461;-72
2023/05/23 00:56:11;;;;;;;7.17;6.40;;;13.40;99.90;;;13.60;75.79;94833.41;5069466;28;20497;-72
2023/05/23 00:58:38;;;;;;;11.63;7.47;;;13.40;99.90;;;13.59;75.95;94843.16;5073533;28;20500;-72
2023/05/23 01:01:05;;;;;;;8.83;6.27;;;13.40;99.90;;;13.58;75.81;94836.22;5073536;28;20485;-70
2023/05/23 01:03:33;;;;;;;6.03;5.43;;;13.40;99.90;;;13.57;75.65;94839.00;5069020;28;20462;-73
2023/05/23 01:06:01;;;;;;;4.43;3.93;;;13.40;99.90;;;13.55;75.14;94841.00;5068998;28;20459;-72
2023/05/23 01:08:29;;;;;;;4.40;3.10;;;13.40;99.90;;;13.53;75.12;94838.50;5070975;28;20461;-58
2023/05/23 01:10:58;;;;;;;5.97;3.60;;;13.40;99.90;;;13.51;74.84;94842.28;5071234;28;20871;-71
2023/05/23 01:13:31;;;;;;;3.53;3.20;;;13.40;99.90;;;13.47;74.49;94840.97;5071142;28;20491;-72
2023/05/23 01:16:03;;;;;;;7.87;2.77;;;13.30;99.90;;;13.43;74.60;94838.66;5075498;28;20446;-58
2023/05/23 01:18:33;;;;;;;6.57;3.27;;;13.30;99.90;;;13.40;74.11;94843.41;5073281;28;20443;-70
2023/05/23 01:21:05;;;;;;;3.43;2.27;;;13.20;99.90;;;13.35;74.11;94835.94;5072915;28;20450;-57
2023/05/23 01:24:19;;;;;;;3.47;3.20;;;13.20;99.90;;;13.30;74.15;94835.56;5067915;28;20549;-73
2023/05/23 01:27:01;;;;;;;4.70;3.37;;;13.10;99.90;;;13.27;73.97;94846.44;5054873;28;20509;-57
2023/05/23 01:29:34;;;;;;;3.37;2.67;;;13.10;99.90;;;13.24;73.99;94838.84;5079896;28;20494;-73
2023/05/23 01:32:01;;;;;;;3.00;2.80;;;13.10;99.90;;;13.23;74.04;94834.53;5072187;28;20494;-58
2023/05/23 01:34:29;;;;;;;3.80;2.70;;;13.10;99.90;;;13.21;74.00;94829.41;5072860;28;20992;-72
2023/05/23 01:36:56;;;;;;;2.40;2.20;;;13.00;99.90;;;13.19;73.52;94831.38;5072838;28;20483;-72
2023/05/23 01:39:24;;;;;;;2.87;2.67;;;13.00;99.90;;;13.17;73.91;94827.25;5070418;28;20885;-57
2023/05/23 01:41:51;;;;;;;16.80;3.17;;;13.00;99.90;;;13.12;73.55;94819.81;5072754;28;20474;-56
2023/05/23 01:44:18;;;;;;;4.30;3.20;;;12.90;99.90;;;13.07;73.64;94833.47;5075966;28;20511;-73
2023/05/23 01:46:47;;;;;;;6.83;3.07;;;12.90;99.90;;;13.03;73.81;94832.13;5071044;28;20540;-71
2023/05/23 01:49:14;;;;;;;4.57;3.53;;;12.90;99.90;;;13.00;74.09;94828.97;5072985;28;20443;-74
2023/05/23 01:51:42;;;;;;;5.13;2.73;;;12.90;99.90;;;12.96;73.92;94823.16;5068978;28;21010;-74
2023/05/23 01:54:09;;;;;;;5.33;3.10;;;12.80;99.90;;;12.90;74.01;94824.63;5076632;28;20454;-71
2023/05/23 01:56:37;;;;;;;3.00;2.70;;;12.80;99.90;;;12.87;74.67;94827.59;5074040;28;20482;-74
2023/05/23 01:59:04;;;;;;;5.07;4.07;;;12.70;99.90;;;12.86;74.51;94828.56;5070569;28;20500;-57
2023/05/23 02:01:31;;;;;;;3.33;3.03;;;12.70;99.90;;;12.85;75.00;94823.44;5079803;28;20462;-57
2023/05/23 02:04:00;;;;;;;3.40;3.10;;;12.70;99.90;;;12.86;74.96;94825.91;5072453;28;20951;-73
2023/05/23 02:06:27;;;;;;;3.10;2.80;;;12.70;99.90;;;12.85;74.90;94824.25;5071941;28;20479;-59
2023/05/23 02:08:55;;;;;;;3.27;3.00;;;12.70;99.90;;;12.84;74.87;94822.63;5071425;28;20450;-73
2023/05/23 02:11:22;;;;;;;3.40;3.10;;;12.70;99.90;;;12.84;75.01;94824.41;5072551;28;20477;-72
2023/05/23 02:13:50;;;;;;;5.27;3.23;;;12.60;99.90;;;12.82;74.63;94821.91;5075908;28;20454;-71
2023/05/23 02:16:17;;;;;;;5.00;3.27;;;12.70;99.90;;;12.79;74.74;94824.88;5075855;28;20509;-57
2023/05/23 02:18:45;;;;;;;7.63;3.40;;;12.70;99.90;;;12.77;75.23;94824.19;5074043;28;20532;-59
2023/05/23 02:21:14;;;;;;;4.97;3.87;;;12.60;99.90;;;12.76;74.73;94821.72;5078476;28;20586;-74
2023/05/23 02:23:41;;;;;;;4.93;3.43;;;12.60;99.90;;;12.71;74.64;94812.44;5073095;28;20466;-57
2023/05/23 02:26:09;;;;;;;6.67;4.17;;;12.50;99.90;;;12.65;74.29;94825.44;5074955;28;20477;-74
2023/05/23 02:28:36;;;;;;;4.70;3.50;;;12.50;99.90;;;12.58;74.70;94827.88;5087743;28;20485;-58
2023/05/23 02:31:03;;;;;;;6.90;4.30;;;12.40;99.90;;;12.57;74.96;94817.47;5072685;28;20457;-73
2023/05/23 02:33:31;;;;;;;10.17;4.50;;;12.40;99.90;;;12.57;75.18;94825.38;5069549;28;20678;-73
2023/05/23 02:35:58;;;;;;;9.00;3.83;;;12.40;99.90;;;12.56;75.72;94819.25;5073774;28;20455;-57
2023/05/23 02:38:28;;;;;;;8.30;4.03;;;12.40;99.90;;;12.57;75.44;94825.38;5070156;28;20511;-73
2023/05/23 02:40:56;;;;;;;11.77;4.43;;;12.40;99.90;;;12.57;76.03;94815.66;5077993;28;20469;-57
2023/05/23 02:43:23;;;;;;;6.00;4.10;;;12.40;99.90;;;12.58;75.48;94822.59;5068335;28;20512;-58
2023/05/23 02:45:50;;;;;;;4.60;3.70;;;12.40;99.90;;;12.59;75.40;94818.13;5073191;28;20454;-61
2023/05/23 02:48:18;;;;;;;6.00;4.47;;;12.40;99.90;;;12.58;75.48;94816.47;5074138;28;20466;-73
2023/05/23 02:50:45;;;;;;;8.17;4.00;;;12.40;99.90;;;12.58;75.55;94816.47;5074428;28;20474;-72
2023/05/23 02:53:13;;;;;;;4.10;3.70;;;12.40;99.90;;;12.57;75.75;94823.56;5071034;28;20490;-57
2023/05/23 02:55:41;;;;;;;7.37;4.17;;;12.40;99.90;;;12.59;75.82;94826.03;5071582;28;20447;-73
2023/05/23 02:58:09;;;;;;;6.47;4.10;;;12.40;99.90;;;12.62;75.67;94831.00;5071804;28;20477;-57
2023/05/23 03:00:36;;;;;;;6.63;4.93;;;12.40;99.90;;;12.66;76.23;94825.28;5070809;28;20581;-72
2023/05/23 03:03:04;;;;;;;10.10;5.70;;;12.50;99.90;;;12.68;76.21;94818.03;5071219;28;20485;-57
2023/05/23 03:05:31;;;;;;;5.97;5.47;;;12.50;99.90;;;12.72;76.19;94819.38;5071716;28;20788;-58
2023/05/23 03:07:59;;;;;;;8.00;6.80;;;12.60;99.90;;;12.77;76.04;94818.09;5065254;28;20589;-70
2023/05/23 03:10:27;;;;;;;17.93;7.50;;;12.60;99.90;;;12.81;76.46;94822.91;5071517;28;20457;-75
2023/05/23 03:12:55;;;;;;;11.30;6.33;;;12.60;99.90;;;12.84;76.06;94819.97;5069534;28;20582;-57
2023/05/23 03:15:23;;;;;;;10.10;7.20;;;12.70;99.90;;;12.87;76.30;94817.03;5063344;28;20532;-73
2023/05/23 03:17:50;;;;;;;9.17;7.70;;;12.70;99.90;;;12.91;76.46;94820.16;5073021;28;20497;-57
2023/05/23 03:20:17;;;;;;;6.57;6.00;;;12.70;99.90;;;12.96;76.46;94822.34;5074490;28;20459;-57
2023/05/23 03:22:45;;;;;;;6.80;6.20;;;12.80;99.90;;;12.99;76.81;94830.78;5078693;28;20485;-70
2023/05/23 03:25:12;;;;;;;12.27;7.03;;;12.80;99.90;;;13.01;76.75;94830.63;5073529;28;21421;-72
2023/05/23 03:27:39;;;;;;;7.07;6.37;;;12.80;99.90;;;13.02;76.79;94827.81;5071486;28;20525;-73
2023/05/23 03:30:10;;;;;;;6.80;6.20;;;12.90;99.90;;;13.04;76.61;94833.78;5071056;28;20458;-59
2023/05/23 03:32:37;;;;;;;9.57;7.40;;;12.80;99.90;;;13.08;77.08;94839.59;5075434;28;20559;-73
2023/05/23 03:35:05;;;;;;;8.97;7.60;;;12.90;99.90;;;13.11;76.99;94834.00;5074824;28;20445;-72
2023/05/23 03:37:32;;;;;;;7.70;6.73;;;12.90;99.90;;;13.15;77.00;94840.63;5070050;28;20486;-58
2023/05/23 03:39:59;;;;;;;7.40;6.57;;;13.00;99.90;;;13.16;76.93;94846.72;5073908;28;20459;-72
2023/05/23 03:42:28;;;;;;;8.53;6.53;;;13.00;99.90;;;13.18;76.81;94842.91;5073218;28;20478;-58
2023/05/23 03:44:55;;;;;;;8.67;7.30;;;13.00;99.90;;;13.19;76.85;94847.22;5074918;28;20447;-58
2023/05/23 03:47:24;;;;;;;14.40;7.37;;;13.00;99.90;;;13.21;77.11;94849.72;5068712;28;20482;-58
2023/05/23 03:49:51;;;;;;;6.73;6.13;;;13.00;99.90;;;13.21;76.91;94847.88;5072496;28;20854;-58
2023/05/23 03:52:19;;;;;;;8.70;5.90;;;13.00;99.90;;;13.22;76.58;94860.13;5074621;28;20490;-71
2023/05/23 03:54:46;;;;;;;10.53;7.77;;;13.00;99.90;;;13.22;76.85;94852.19;5072469;28;20459;-71
2023/05/23 03:57:13;;;;;;;10.50;8.07;;;13.10;99.90;;;13.26;76.75;94853.56;5078927;28;20479;-58
2023/05/23 03:59:40;;;;;;;6.97;6.27;;;13.10;99.90;;;13.30;76.85;94854.06;5072517;28;20995;-71
2023/05/23 04:02:08;;;;;;;8.30;6.53;;;13.10;99.90;;;13.33;76.41;94850.28;5073982;28;21067;-71
2023/05/23 04:04:38;;;;;;;6.63;6.00;;;13.10;99.90;;;13.34;76.52;94862.53;5076554;28;20450;-57
2023/05/23 04:07:05;;;;;;;6.23;5.63;;;13.20;99.90;;;13.36;76.50;94858.75;5078360;28;20462;-59
2023/05/23 04:09:33;;;;;;;6.63;5.90;;;13.20;99.90;;;13.40;76.48;94860.09;5073151;28;20451;-57
2023/05/23 04:12:00;;;;;;;7.07;5.93;;;13.20;99.90;;;13.43;76.83;94857.13;5076071;28;20574;-58
2023/05/23 04:14:28;;;;;;;6.87;6.23;;;13.30;99.90;;;13.47;76.65;94864.75;5075466;28;20510;-71
2023/05/23 04:16:55;;;;;;;8.17;5.90;;;13.30;99.90;;;13.51;76.32;94859.00;5071571;28;20474;-71
2023/05/23 04:19:22;;;;;;;6.33;5.70;;;13.30;99.90;;;13.55;76.12;94852.38;5071283;28;20489;-69
2023/05/23 04:21:51;;;;;;;5.23;4.73;;;13.30;99.90;;;13.57;75.74;94847.78;5078255;28;20466;-59
2023/05/23 04:24:18;;;;;;;6.43;5.80;;;13.40;99.90;;;13.58;75.83;94843.31;5081962;28;20519;-65
2023/05/23 04:26:45;;;;;;;7.10;5.93;;;13.40;99.90;;;13.62;76.05;94842.03;5073456;28;20542;-66
2023/05/23 04:29:13;;;;;;;6.83;5.93;;;13.40;99.90;;;13.67;76.07;94844.19;5070589;28;20459;-57
2023/05/23 04:31:40;;;;;;;9.07;6.90;;;13.50;99.90;;;13.74;75.38;94839.91;5074271;28;20494;-65
2023/05/23 04:34:08;;;;;;;8.57;7.20;;;13.50;99.90;;;13.81;75.13;94851.50;5071840;28;20493;-57
2023/05/23 04:36:37;;;;;;;13.10;8.00;;;13.60;99.90;;;13.86;75.85;94854.50;5077473;28;20945;-72
2023/05/23 04:39:06;;;;;;;12.90;6.77;;;13.70;99.90;;;13.91;75.06;94860.16;5076849;28;20461;-70
2023/05/23 04:41:35;;;;;;;7.20;6.20;;;13.70;99.90;;;13.92;74.95;94858.31;5075903;28;20478;-59
2023/05/23 04:44:02;;;;;;;20.53;7.20;;;13.70;99.90;;;13.92;75.28;94853.84;5070462;28;21040;-73
2023/05/23 04:46:30;;;;;;;10.20;6.40;;;13.80;99.90;;;13.91;75.00;94862.78;5072716;28;20478;-72
2023/05/23 04:48:57;;;;;;;8.73;7.27;;;13.80;99.90;;;13.93;74.81;94863.44;5069697;28;20459;-71
2023/05/23 04:51:25;;;;;;;7.83;6.40;;;13.80;99.90;;;13.94;75.13;94859.81;5076004;28;20474;-71
2023/05/23 04:53:52;;;;;;;8.33;6.43;;;13.80;99.90;;;13.95;74.82;94868.56;5074491;28;20477;-71
2023/05/23 04:56:21;;;;;;;13.70;6.23;;;13.80;99.90;;;13.94;74.21;94865.13;5071192;28;20509;-71
2023/05/23 04:58:48;;;;;;;6.40;5.67;;;13.80;99.90;;;13.95;74.25;94863.28;5075446;28;21027;-58
2023/05/23 05:01:15;;;;;;;9.70;5.90;;;13.80;99.90;;;13.95;74.55;94865.94;5074579;28;20475;-57
2023/05/23 05:03:43;;;;;;;15.20;7.43;;;13.80;99.90;;;13.96;74.81;94865.78;5073567;28;21047;-59
2023/05/23 05:06:10;;;;;;;7.03;5.97;;;13.80;99.90;;;14.01;74.77;94875.06;5069426;28;20474;-73
2023/05/23 05:08:39;;;;;;;7.87;6.70;;;13.80;99.90;;;14.06;74.48;94875.38;5075539;28;20838;-73
2023/05/23 05:11:06;;;;;;;7.90;7.10;;;13.90;99.90;;;14.09;74.33;94869.78;5072238;28;20466;-73
2023/05/23 05:13:35;;;;;;;6.73;6.03;;;13.90;99.90;;;14.11;74.54;94879.22;5075982;28;20487;-58
2023/05/23 05:16:02;;;;;;;8.93;6.30;;;13.90;99.90;;;14.16;74.27;94879.53;5073482;28;20447;-73
2023/05/23 05:18:30;;;;;;;14.23;7.60;;;14.00;99.90;;;14.20;74.39;94877.41;5076516;28;20450;-73
2023/05/23 05:20:57;;;;;;;13.43;7.40;;;14.00;99.90;;;14.20;74.25;94879.22;5067292;28;20940;-57
2023/05/23 05:23:27;;;;;;;28.60;7.10;;;14.00;99.90;;;14.15;73.76;94877.88;5073385;28;20971;-74
2023/05/23 05:25:56;;;;;;;13.60;7.07;;;14.00;99.90;;;14.12;73.81;94887.97;5073859;28;20538;-73
2023/05/23 05:28:23;;;;;;;10.30;6.73;;;14.00;99.90;;;14.12;73.75;94880.84;5075104;28;20453;-59
2023/05/23 05:30:53;;;;;;;8.70;6.37;;;13.90;99.90;;;14.11;73.98;94876.56;5076823;28;20448;-59
2023/05/23 05:33:22;;;;;;;9.50;7.13;;;13.90;99.90;;;14.10;73.97;94876.72;5074565;28;20937;-58
2023/05/23 05:35:50;;;;;;;8.40;6.40;;;13.90;99.90;;;14.07;73.69;94880.50;5070695;28;20459;-59
2023/05/23 05:38:17;;;;;;;7.30;6.47;;;13.90;99.90;;;14.05;74.14;94873.72;5073566;28;20482;-72
2023/05/23 05:40:45;;;;;;;22.10;8.00;;;13.90;99.90;;;14.05;74.05;94881.66;5075320;28;20806;-58
2023/05/23 05:43:12;;;;;;;19.10;8.30;;;13.90;99.90;;;14.01;74.16;94877.69;5071173;28;20447;-59
2023/05/23 05:45:39;;;;;;;23.90;9.97;;;13.80;99.90;;;13.98;74.61;94884.94;5077239;28;20454;-59
2023/05/23 05:48:08;;;;;;;16.70;10.00;;;13.80;99.90;;;13.99;74.81;94881.31;5073050;28;20532;-59
2023/05/23 05:50:35;;;;;;;26.07;13.23;;;13.80;99.90;;;14.02;74.35;94881.97;5077074;28;20462;-59
2023/05/23 05:53:03;;;;;;;18.80;10.57;;;13.80;99.90;;;13.96;74.38;94888.75;5070931;28;20998;-73
2023/05/23 05:55:30;;;;;;;13.87;9.60;;;13.80;99.90;;;13.93;74.92;94889.88;5073638;28;20446;-72
2023/05/23 05:57:58;;;;;;;15.40;9.50;;;13.70;99.90;;;13.99;74.98;94896.38;5074018;28;20478;-73
2023/05/23 06:00:25;;;;;;;28.03;11.53;;;13.80;99.90;;;14.10;75.38;94889.94;5079225;28;20450;-58
2023/05/23 06:02:56;;;;;;;20.80;11.67;;;13.80;99.90;;;14.22;75.09;94896.59;5075486;28;21017;-58
2023/05/23 06:05:25;;;;;;;18.30;10.70;;;13.90;99.90;;;14.35;75.30;94891.66;5076864;28;20548;-72
2023/05/23 06:07:52;;;;;;;21.07;11.37;;;14.10;99.90;;;14.52;75.19;94894.34;5072317;28;20841;-72
2023/05/23 06:10:20;;;;;;;26.83;12.03;;;14.30;99.90;;;14.65;74.49;94891.22;5074560;28;20458;-59
2023/05/23 06:12:47;;;;;;;19.33;12.23;;;14.40;99.90;;;14.67;74.33;94891.88;5073209;28;20478;-72
2023/05/23 06:15:14;;;;;;;16.87;11.50;;;14.40;99.90;;;14.72;74.24;94892.22;5077060;28;20458;-60
2023/05/23 06:17:43;;;;;;;22.83;12.07;;;14.50;99.90;;;14.81;74.26;94890.41;5071491;28;20536;-75
2023/05/23 06:20:12;;;;;;;15.70;11.97;;;14.50;99.90;;;14.89;74.24;94887.78;5077643;28;20462;-73
2023/05/23 06:22:40;;;;;;;21.70;11.00;;;14.70;99.90;;;15.01;73.97;94886.44;5071722;28;20816;-59
2023/05/23 06:25:08;;;;;;;23.03;12.60;;;14.80;99.90;;;15.17;74.26;94892.72;5072389;28;20482;-59
2023/05/23 06:27:36;;;;;;;25.80;12.20;;;14.90;99.90;;;15.30;73.44;94887.72;5074505;28;20470;-72
2023/05/23 06:30:05;;;;;;;22.20;11.83;;;15.00;99.90;;;15.44;73.14;94893.31;5072519;28;20521;-74
2023/05/23 06:32:32;;;;;;;13.37;10.50;;;15.20;99.90;;;15.59;73.17;94883.69;5074301;28;20477;-72
2023/05/23 06:34:59;;;;;;;23.90;11.57;;;15.30;99.90;;;15.79;72.61;94889.44;5074228;28;20486;-58
2023/05/23 06:37:27;;;;;;;18.37;11.83;;;15.50;99.90;;;16.01;72.29;94887.03;5074893;28;20482;-73
2023/05/23 06:39:55;;;;;;;20.43;11.67;;;15.70;99.90;;;16.25;71.79;94894.03;5073724;28;20536;-58
2023/05/23 06:42:23;;;;;;;16.00;10.87;;;15.90;99.90;;;16.52;71.29;94899.88;5067749;28;20477;-71
2023/05/23 06:44:50;;;;;;;14.07;10.93;;;16.20;99.90;;;16.83;71.04;94884.69;5076687;28;20451;-71
2023/05/23 06:47:17;;;;;;;17.43;11.83;;;16.50;99.90;;;17.14;70.00;94889.13;5075838;28;20527;-58
2023/05/23 06:49:45;;;;;;;14.17;10.30;;;16.80;99.90;;;17.42;69.77;94875.22;5071826;28;20451;-58
2023/05/23 06:52:12;;;;;;;15.00;11.10;;;17.00;99.90;;;17.67;68.87;94877.63;5076538;28;21004;-72
2023/05/23 06:54:40;;;;;;;25.17;11.70;;;17.30;99.90;;;17.95;68.26;94877.00;5072967;28;20517;-58
2023/05/23 06:57:08;;;;;;;16.77;9.87;;;17.60;99.90;;;18.18;67.87;94875.03;5074077;28;21026;-59
2023/05/23 06:59:35;;;;;;;17.23;11.10;;;17.80;99.90;;;18.50;67.10;94872.94;5077425;28;20451;-60
2023/05/23 07:02:03;;;;;;;19.60;11.80;;;18.10;99.90;;;18.81;66.63;94871.81;5070826;28;21212;-73
2023/05/23 07:04:30;;;;;;;20.43;12.30;;;18.40;99.90;;;19.04;65.28;94874.31;5069929;28;20453;-72
2023/05/23 07:06:58;;;;;;;14.53;10.77;;;18.70;99.90;;;19.18;64.26;94864.56;5072905;28;21055;-73
2023/05/23 07:09:25;;;;;;;21.20;10.90;;;18.80;99.90;;;19.35;64.85;94860.59;5074353;28;20450;-59
2023/05/23 07:11:52;;;;;;;24.13;12.07;;;19.00;99.90;;;19.56;63.84;94864.19;5079468;28;20502;-73
2023/05/23 07:14:21;;;;;;;17.43;12.53;;;19.10;99.90;;;19.71;63.63;94856.91;5075036;28;20497;-59
2023/05/23 07:16:48;;;;;;;20.77;13.00;;;19.30;99.90;;;19.87;63.16;94857.63;5076732;28;20479;-74
2023/05/23 07:19:16;;;;;;;23.03;11.97;;;19.50;99.90;;;19.98;62.63;94854.41;5077056;28;20963;-72
2023/05/23 07:21:43;;;;;;;16.03;12.40;;;19.50;99.90;;;20.14;62.06;94853.25;5077742;28;20471;-58
2023/05/23 07:24:10;;;;;;;17.37;11.37;;;19.70;99.90;;;20.35;62.40;94854.13;5077015;28;20458;-59
2023/05/23 07:26:37;;;;;;;15.83;12.37;;;19.90;99.90;;;20.68;61.89;94848.06;5079320;28;20478;-72
2023/05/23 07:29:05;;;;;;;19.93;12.20;;;20.10;99.90;;;20.99;61.21;94846.66;5080103;28;20446;-73
2023/05/23 07:31:34;;;;;;;24.77;13.63;;;20.50;99.90;;;21.29;60.08;94841.72;5078597;28;20550;-73
2023/05/23 07:34:01;;;;;;;16.97;12.97;;;20.80;99.90;;;21.58;59.50;94839.66;5075076;28;20543;-58
2023/05/23 07:36:32;;;;;;;25.13;12.70;;;21.00;99.90;;;21.87;58.40;94845.56;5076381;28;20463;-60
2023/05/23 07:39:00;;;;;;;23.70;12.50;;;21.30;99.90;;;22.10;58.30;94834.34;5079545;28;20831;-60
2023/05/23 07:41:28;;;;;;;17.10;11.53;;;21.60;99.90;;;22.34;57.74;94846.25;5078960;28;21152;-72
2023/05/23 07:43:55;;;;;;;16.03;13.03;;;21.80;99.90;;;22.55;57.22;94832.50;5076966;28;20519;-72
2023/05/23 07:46:22;;;;;;;27.23;11.63;;;22.00;99.40;;;22.67;56.93;94846.03;5076643;28;20466;-72
2023/05/23 07:48:51;;;;;;;15.73;12.50;;;22.20;99.10;;;22.88;57.33;94838.69;5076753;28;21017;-74
2023/05/23 07:51:20;;;;;;;25.07;13.90;;;22.40;98.90;;;23.01;56.44;94832.41;5076333;28;20470;-73
2023/05/23 07:53:47;;;;;;;20.00;11.47;;;22.50;98.00;;;23.01;56.45;94838.59;5075600;28;20598;-59
2023/05/23 07:56:14;;;;;;;18.80;11.77;;;22.50;97.90;;;23.17;55.87;94831.88;5074505;28;20467;-72
2023/05/23 07:58:41;;;;;;;18.70;12.77;;;22.70;97.90;;;23.41;55.75;94829.44;5078526;28;20454;-59
2023/05/23 08:01:09;;;;;;;19.83;13.47;;;22.80;97.40;;;23.68;54.77;94831.84;5073318;28;20475;-58
2023/05/23 08:03:36;;;;;;;18.00;13.40;;;23.10;97.40;;;23.94;54.04;94834.25;5077426;28;20874;-59
2023/05/23 08:06:06;;;;;;;24.33;14.13;;;23.40;96.70;;;24.17;53.82;94833.56;5073726;28;20462;-59
2023/05/23 08:08:33;;;;;;;23.80;15.87;;;23.60;96.30;;;24.25;53.59;94829.75;5079290;28;20539;-56
2023/05/23 08:11:01;;;;;;;22.80;15.50;;;23.70;95.60;;;24.12;52.40;94829.91;5073309;28;21409;-73
2023/05/23 08:13:28;;;;;;;26.27;16.90;;;23.70;94.70;;;24.12;52.85;94825.38;5079148;28;20457;-59
2023/05/23 08:15:55;;;;;;;22.63;14.50;;;23.60;95.00;;;24.32;52.83;94827.81;5074017;28;20451;-59
2023/05/23 08:18:23;;;;;;;22.60;14.07;;;23.80;95.10;;;24.61;51.95;94832.63;5074833;28;20973;-74
2023/05/23 08:20:50;;;;;;;23.93;15.40;;;24.00;94.70;;;24.91;52.34;94827.25;5074105;28;20442;-72
2023/05/23 08:23:19;;;;;;;36.60;18.77;;;24.30;94.40;;;25.24;51.26;94829.38;5077269;28;20453;-60
2023/05/23 08:25:46;;;;;;;38.67;20.53;;;24.60;93.80;;;25.47;50.13;94821.56;5073611;28;21027;-59
2023/05/23 08:28:14;;;;;;;33.10;20.57;;;24.90;92.80;;;25.66;50.82;94823.09;5079121;28;20463;-74
2023/05/23 08:30:41;;;;;;;34.70;21.17;;;25.10;92.70;;;25.87;50.00;94828.94;5072455;28;20446;-74
2023/05/23 08:33:08;;;;;;;38.10;21.03;;;25.30;92.30;;;26.07;49.65;94818.63;5075307;28;20501;-74
2023/05/23 08:35:36;;;;;;;36.77;21.70;;;25.50;91.60;;;26.30;49.38;94820.44;5075501;28;20490;-71
2023/05/23 08:38:06;;;;;;;37.40;24.97;;;25.70;91.40;;;26.41;48.43;94809.84;5077374;28;21379;-74
2023/05/23 08:40:35;;;;;;;43.37;25.37;;;25.90;90.10;;;26.30;48.73;94814.22;5081757;28;20446;-73
2023/05/23 08:43:03;;;;;;;55.50;28.07;;;25.90;90.10;;;26.38;48.88;94813.81;5071743;28;20477;-73
2023/05/23 08:45:33;;;;;;;57.97;33.10;;;25.90;90.00;;;26.58;48.22;94812.56;5077792;28;20465;-57
2023/05/23 08:48:01;;;;;;;50.60;33.27;;;26.10;90.00;;;26.57;47.73;94805.53;5074921;28;20466;-58
2023/05/23 08:50:30;;;;;;;54.83;33.20;;;26.10;88.00;;;26.48;47.96;94808.63;5075271;28;20561;-67
2023/05/23 08:52:58;;;;;;;50.17;30.73;;;26.00;87.50;;;26.63;48.12;94810.81;5077092;28;20478;-73
2023/05/23 08:55:27;;;;;;;52.67;24.43;;;26.10;87.90;;;26.70;47.42;94799.88;5076560;28;20493;-59
2023/05/23 08:57:56;;;;;;;40.53;23.60;;;26.10;85.70;;;26.66;46.60;94809.50;5068706;28;20466;-73
2023/05/23 09:00:23;;;;;;;37.50;21.43;;;26.10;83.30;;;26.52;46.53;94802.75;5077489;28;20449;-58
2023/05/23 09:02:51;;;;;;;42.07;21.87;;;26.00;82.70;;;26.56;46.78;94804.72;5070828;28;20478;-58
2023/05/23 09:05:19;;;;;;;32.77;20.57;;;26.00;83.30;;;26.77;46.69;94794.31;5077367;28;20453;-73
2023/05/23 09:07:47;;;;;;;27.67;18.57;;;26.10;83.10;;;27.07;46.42;94795.94;5075168;28;20473;-74
2023/05/23 09:10:16;;;;;;;36.70;19.70;;;26.40;82.10;;;27.21;45.36;94796.41;5076974;28;20468;-72
2023/05/23 09:12:44;;;;;;;35.30;17.30;;;26.60;80.70;;;27.29;45.06;94790.59;5070501;28;20481;-58
2023/05/23 09:15:13;;;;;;;23.63;16.43;;;26.80;79.40;;;27.49;45.10;94790.13;5076514;28;21074;-59
2023/05/23 09:17:40;;;;;;;45.23;18.87;;;26.90;78.20;;;27.61;43.73;94792.72;5073001;28;20489;-58
2023/05/23 09:20:12;;;;;;;38.67;14.77;;;27.00;76.10;;;27.62;43.41;94788.94;5077615;28;20457;-73
2023/05/23 09:22:40;;;;;;;27.50;7.93;;;27.10;75.30;;;27.54;43.21;94788.31;5075507;28;20467;-59
2023/05/23 09:25:08;;;;;;;10.90;6.30;;;27.10;74.00;;;27.44;42.14;94779.25;5074530;28;20504;-73
2023/05/23 09:27:36;;;;;;;9.93;6.33;;;27.00;71.20;;;27.46;42.13;94775.22;5074755;28;20517;-73
2023/05/23 09:30:07;;;;;;;17.13;8.40;;;27.00;69.90;;;27.63;41.82;94775.19;5074392;28;20453;-74
2023/05/23 09:32:36;;;;;;;13.93;6.40;;;27.10;69.20;;;27.70;40.74;94775.00;5070601;28;20503;-59
2023/05/23 09:35:04;;;;;;;7.67;5.43;;;27.20;66.90;;;27.57;40.53;94769.97;5075917;28;20501;-73
2023/05/23 09:37:32;;;;;;;7.53;5.27;;;27.10;66.90;;;27.45;38.70;94770.88;5072235;28;20485;-73
2023/05/23 09:40:00;;;;;;;6.47;5.70;;;27.00;64.30;;;27.32;40.47;94766.63;5069692;28;20516;-74
2023/05/23 09:42:32;;;;;;;9.97;6.37;;;26.90;65.50;;;27.18;39.02;94768.00;5070788;28;20494;-58
2023/05/23 09:45:00;;;;;;;6.33;4.80;;;26.80;63.10;;;27.05;40.61;94758.38;5072254;28;20447;-74
2023/05/23 09:47:27;;;;;;;7.83;5.30;;;26.70;65.20;;;27.17;40.33;94759.09;5078067;28;20534;-74
2023/05/23 09:49:56;;;;;;;9.73;5.40;;;26.70;65.40;;;27.34;40.75;94769.91;5073216;28;20457;-60
2023/05/23 09:52:24;;;;;;;7.23;3.97;;;26.80;65.40;;;27.39;40.00;94762.94;5075244;28;20473;-74
2023/05/23 09:54:51;;;;;;;12.27;4.97;;;26.90;64.00;;;27.29;39.68;94763.59;5072374;28;20490;-59
2023/05/23 09:57:19;;;;;;;5.43;4.40;;;26.80;62.80;;;27.26;39.53;94753.28;5074909;28;20478;-73
2023/05/23 09:59:52;;;;;;;4.70;4.07;;;26.80;62.10;;;27.27;39.91;94749.53;5076415;28;20807;-72
2023/05/23 10:02:54;;;;;;;11.40;5.00;;;26.80;62.60;;;27.39;38.90;94749.44;5081110;28;20469;-73
2023/05/23 10:05:34;;;;;;;18.97;4.50;;;26.80;62.30;;;27.59;38.43;94751.59;5074604;28;20457;-57
2023/05/23 10:08:09;;;;;;;7.17;4.43;;;27.00;62.00;;;27.62;38.81;94751.94;5072059;28;20481;-58
2023/05/23 10:10:37;;;;;;;4.47;3.60;;;27.10;61.60;;;27.61;38.61;94758.41;5069311;28;20453;-72
2023/05/23 10:13:04;;;;;;;7.40;3.70;;;27.10;60.00;;;27.53;37.24;94756.94;5073336;28;20556;-71
2023/05/23 10:15:36;;;;;;;12.63;4.57;;;27.00;58.10;;;27.37;37.27;94746.97;5074698;28;20585;-73
2023/05/23 10:18:08;;;;;;;9.73;3.70;;;27.00;57.50;;;27.28;37.33;94753.84;5072228;28;20501;-59